Inta, Russia
Current Conditions -  °F | °C
As of 11:30 PM on Monday 26 Jan 2015 (Local Time) from UUYY Reporting Station
Overcast Overcast  
Wind Chill:   Ceiling: 1400
Heat Index: 16°   Visibility: 6mi
Dew Point: 12°   Wind: 9mph
Humidity: 86%   Direction: 210°SSW
Pressure: 30.15"   Gusts: NA
Location:  66.04°N, 60.17°E
Report Text: UUYY 262030Z 21004MPS 9999 BKN014CB OVC066 M09/M11 Q1021 NOSIG19390232 RMK QFE757/1009
Loading
Personal Weather Stations






























Interactive Weather Map New forecast layout! Learn more

10-Day Weather Forecast

Advertisements
Track Severe Weather on mobile